createdAt,value
2022-09-14T00:01:24.893Z,21.36
2022-09-14T00:03:53.899Z,21.35
2022-09-14T00:06:20.345Z,21.35
2022-09-14T00:08:49.759Z,21.39
2022-09-14T00:11:16.335Z,21.34
2022-09-14T00:13:44.037Z,21.24
2022-09-14T00:16:12.545Z,20.99
2022-09-14T00:18:39.067Z,20.84
2022-09-14T00:21:07.402Z,20.82
2022-09-14T00:23:37.740Z,20.82
2022-09-14T00:26:12.854Z,20.85
2022-09-14T00:28:40.954Z,20.86
2022-09-14T00:31:07.876Z,20.84
2022-09-14T00:33:34.862Z,20.80
2022-09-14T00:36:20.854Z,20.77
2022-09-14T00:38:47.785Z,20.71
2022-09-14T00:41:21.504Z,20.58
2022-09-14T00:43:52.284Z,20.51
2022-09-14T00:46:18.732Z,20.53
2022-09-14T00:48:45.276Z,20.55
2022-09-14T00:51:11.827Z,20.60
2022-09-14T00:53:38.334Z,20.62
2022-09-14T00:56:04.867Z,20.66
2022-09-14T00:58:31.323Z,20.70
2022-09-14T01:00:58.963Z,20.67
2022-09-14T01:03:25.491Z,20.63
2022-09-14T01:06:04.931Z,20.62
2022-09-14T01:08:40.502Z,20.65
2022-09-14T01:11:27.066Z,20.72
2022-09-14T01:14:03.241Z,20.75
2022-09-14T01:16:37.682Z,20.75
2022-09-14T01:19:07.336Z,20.75
2022-09-14T01:21:36.028Z,20.69
2022-09-14T01:24:16.607Z,20.66
2022-09-14T01:26:46.145Z,20.57
2022-09-14T01:29:17.907Z,20.57
2022-09-14T01:32:00.205Z,20.58
2022-09-14T01:34:31.653Z,20.57
2022-09-14T01:37:06.215Z,20.52
2022-09-14T01:39:34.806Z,20.45
2022-09-14T01:42:01.925Z,20.42
2022-09-14T01:44:34.224Z,20.45
2022-09-14T01:47:08.003Z,20.50
2022-09-14T01:49:38.154Z,20.54
2022-09-14T01:52:08.526Z,20.52
2022-09-14T01:54:39.444Z,20.50
2022-09-14T01:57:18.249Z,20.50
2022-09-14T01:59:45.802Z,20.50
2022-09-14T02:02:16.253Z,20.54
2022-09-14T02:04:43.444Z,20.53
2022-09-14T02:07:10.467Z,20.47
2022-09-14T02:09:37.761Z,20.44
2022-09-14T02:12:04.866Z,20.41
2022-09-14T02:14:31.978Z,20.35
2022-09-14T02:16:58.880Z,20.31
2022-09-14T02:19:26.787Z,20.32
2022-09-14T02:21:53.640Z,20.32
2022-09-14T02:24:20.662Z,20.33
2022-09-14T02:27:00.995Z,20.32
2022-09-14T02:29:27.662Z,20.16
2022-09-14T02:32:14.628Z,20.08
2022-09-14T02:34:44.128Z,19.91
2022-09-14T02:37:13.716Z,19.79
2022-09-14T02:39:50.696Z,19.61
2022-09-14T02:42:22.795Z,19.60
2022-09-14T02:45:14.812Z,19.52
2022-09-14T02:47:50.427Z,19.43
2022-09-14T02:50:22.462Z,19.46
2022-09-14T02:52:53.801Z,19.51
2022-09-14T02:55:21.600Z,19.57
2022-09-14T02:58:07.761Z,19.61
2022-09-14T03:00:36.726Z,19.56
2022-09-14T03:03:04.757Z,19.58
2022-09-14T03:05:31.448Z,19.66
2022-09-14T03:07:57.961Z,19.74
2022-09-14T03:10:24.662Z,19.73
2022-09-14T03:12:51.178Z,19.71
2022-09-14T03:15:17.674Z,19.74
2022-09-14T03:17:47.833Z,19.74
2022-09-14T03:20:18.124Z,19.68
2022-09-14T03:22:44.656Z,19.57
2022-09-14T03:25:11.306Z,19.48
2022-09-14T03:27:37.789Z,19.50
2022-09-14T03:30:04.975Z,19.59
2022-09-14T03:32:32.008Z,19.65
2022-09-14T03:34:58.571Z,19.71
2022-09-14T03:37:25.974Z,19.71
2022-09-14T03:39:52.604Z,19.72
2022-09-14T03:42:19.140Z,19.77
2022-09-14T03:44:45.581Z,19.79
2022-09-14T03:47:12.048Z,19.79
2022-09-14T03:49:38.596Z,19.79
2022-09-14T03:52:05.135Z,19.81
2022-09-14T03:54:31.589Z,19.77
2022-09-14T03:56:58.018Z,19.79
2022-09-14T03:59:24.522Z,19.82
2022-09-14T04:01:51.028Z,19.87
2022-09-14T04:04:17.596Z,19.84
2022-09-14T04:06:44.170Z,19.83
2022-09-14T04:09:10.615Z,19.82
2022-09-14T04:11:37.165Z,19.84
2022-09-14T04:14:04.494Z,19.80
2022-09-14T04:16:31.553Z,19.80
2022-09-14T04:18:58.266Z,19.83
2022-09-14T04:21:25.379Z,19.85
2022-09-14T04:26:39.884Z,19.94
2022-09-14T04:29:06.306Z,20.00
2022-09-14T04:31:33.399Z,20.03
2022-09-14T04:33:59.900Z,20.06
2022-09-14T04:36:29.271Z,20.12
2022-09-14T04:38:57.120Z,20.19
2022-09-14T04:41:24.314Z,20.24
2022-09-14T04:43:51.522Z,20.28
2022-09-14T04:46:19.475Z,20.22
2022-09-14T04:48:46.266Z,20.22
2022-09-14T04:51:16.595Z,20.25
2022-09-14T04:53:43.749Z,20.24
2022-09-14T04:56:11.514Z,20.26
2022-09-14T04:58:42.370Z,20.28
2022-09-14T05:01:10.371Z,20.29
2022-09-14T05:03:40.486Z,20.31
2022-09-14T05:06:10.641Z,20.31
2022-09-14T05:08:38.609Z,20.28
2022-09-14T05:11:06.762Z,20.20
2022-09-14T05:13:33.867Z,20.13
2022-09-14T05:16:10.831Z,20.07
2022-09-14T05:18:37.862Z,20.02
2022-09-14T05:21:08.372Z,19.94
2022-09-14T05:23:35.481Z,19.87
2022-09-14T05:26:02.383Z,19.78
2022-09-14T05:28:28.854Z,19.66
2022-09-14T05:30:55.562Z,19.65
2022-09-14T05:33:22.408Z,19.65
2022-09-14T05:35:49.532Z,19.67
2022-09-14T05:38:16.040Z,19.66
2022-09-14T05:40:42.409Z,19.61
2022-09-14T05:43:08.922Z,19.67
2022-09-14T05:45:35.526Z,19.68
2022-09-14T05:48:04.731Z,19.71
2022-09-14T05:50:32.289Z,19.64
2022-09-14T05:52:58.850Z,19.58
2022-09-14T05:55:25.300Z,19.59
2022-09-14T05:57:51.817Z,19.63
2022-09-14T06:00:18.795Z,19.43
2022-09-14T06:02:53.048Z,19.29
2022-09-14T06:05:20.381Z,19.28
2022-09-14T06:07:50.724Z,19.36
2022-09-14T06:10:17.132Z,19.44
2022-09-14T06:12:43.563Z,19.49
2022-09-14T06:15:10.905Z,19.59
2022-09-14T06:17:37.892Z,19.65
2022-09-14T06:20:05.557Z,19.58
2022-09-14T06:22:32.329Z,19.58
2022-09-14T06:24:58.770Z,19.67
2022-09-14T06:27:25.289Z,19.72
2022-09-14T06:29:53.745Z,19.68
2022-09-14T06:32:21.088Z,19.78
2022-09-14T06:34:47.492Z,19.90
2022-09-14T06:37:14.014Z,19.99
2022-09-14T06:39:40.767Z,20.02
2022-09-14T06:42:07.267Z,20.13
2022-09-14T06:44:38.400Z,20.19
2022-09-14T06:47:04.888Z,20.22
2022-09-14T06:49:31.366Z,20.32
2022-09-14T06:51:57.916Z,20.47
2022-09-14T06:54:25.380Z,20.56
2022-09-14T06:56:52.135Z,20.59
2022-09-14T06:59:18.992Z,20.60
2022-09-14T07:01:46.167Z,20.62
2022-09-14T07:04:12.927Z,20.67
2022-09-14T07:06:41.419Z,20.75
2022-09-14T07:09:08.287Z,20.81
2022-09-14T07:11:34.852Z,20.84
2022-09-14T07:14:02.174Z,20.83
2022-09-14T07:16:30.233Z,20.90
2022-09-14T07:18:57.632Z,20.87
2022-09-14T07:21:24.642Z,20.75
2022-09-14T07:23:51.445Z,20.81
2022-09-14T07:26:19.442Z,20.73
2022-09-14T07:28:47.339Z,20.54
2022-09-14T07:31:17.109Z,20.35
2022-09-14T07:33:43.587Z,20.35
2022-09-14T07:36:11.074Z,20.56
2022-09-14T07:38:53.584Z,20.80
2022-09-14T07:41:24.508Z,20.91
2022-09-14T07:43:51.779Z,21.01
2022-09-14T07:46:18.914Z,20.96
2022-09-14T07:48:45.420Z,21.15
2022-09-14T07:51:12.201Z,21.48
2022-09-14T07:53:40.336Z,21.87
2022-09-14T07:56:10.396Z,22.09
2022-09-14T07:58:37.084Z,22.14
2022-09-14T08:01:12.199Z,22.16
2022-09-14T08:03:42.484Z,22.10
2022-09-14T08:06:10.868Z,22.21
2022-09-14T08:08:38.449Z,22.51
2022-09-14T08:11:12.592Z,22.78
2022-09-14T08:13:40.307Z,23.07
2022-09-14T08:16:06.837Z,23.09
2022-09-14T08:18:33.775Z,23.18
2022-09-14T08:21:04.514Z,23.38
2022-09-14T08:23:30.918Z,23.57
2022-09-14T08:26:01.686Z,23.60
2022-09-14T08:28:28.127Z,23.61
2022-09-14T08:30:54.583Z,23.56
2022-09-14T08:33:20.995Z,23.41
2022-09-14T08:35:57.856Z,23.08
2022-09-14T08:38:24.886Z,23.04
2022-09-14T08:40:51.537Z,23.00
2022-09-14T08:43:19.665Z,22.72
2022-09-14T08:45:47.878Z,22.63
2022-09-14T08:48:25.384Z,22.70
2022-09-14T08:50:54.765Z,22.62
2022-09-14T08:53:21.988Z,22.48
2022-09-14T08:55:48.350Z,22.34
2022-09-14T08:58:25.024Z,22.35
2022-09-14T09:01:01.780Z,22.48
2022-09-14T09:03:41.155Z,22.55
2022-09-14T09:06:07.647Z,22.57
2022-09-14T09:08:41.714Z,22.76
2022-09-14T09:11:13.168Z,22.89
2022-09-14T09:13:40.145Z,22.67
2022-09-14T09:16:09.181Z,22.49
2022-09-14T09:18:39.669Z,22.36
2022-09-14T09:21:29.480Z,22.34
2022-09-14T09:24:00.123Z,22.47
2022-09-14T09:26:30.979Z,22.44
2022-09-14T09:28:59.433Z,22.30
2022-09-14T09:31:39.764Z,22.28
2022-09-14T09:34:36.374Z,22.51
2022-09-14T09:37:23.004Z,22.65
2022-09-14T09:39:50.248Z,23.44
2022-09-14T09:42:24.349Z,25.15
2022-09-14T09:45:03.633Z,26.41
2022-09-14T09:47:35.448Z,28.74
2022-09-14T09:50:04.688Z,31.31
2022-09-14T09:52:33.160Z,31.74
2022-09-14T09:55:00.383Z,31.94
2022-09-14T09:57:31.844Z,31.07
2022-09-14T10:00:18.566Z,30.05
2022-09-14T10:02:45.053Z,30.31
2022-09-14T10:05:11.995Z,30.60
2022-09-14T10:07:50.630Z,32.00
2022-09-14T10:10:18.613Z,33.24
2022-09-14T10:12:49.782Z,34.76
2022-09-14T10:15:32.961Z,36.91
2022-09-14T10:18:15.332Z,37.65
2022-09-14T10:20:43.224Z,36.62
2022-09-14T10:23:18.872Z,37.47
2022-09-14T10:25:45.987Z,38.49
2022-09-14T10:28:32.067Z,39.22
2022-09-14T10:31:01.636Z,39.36
2022-09-14T10:33:29.575Z,38.74
2022-09-14T10:36:02.092Z,36.88
2022-09-14T10:38:32.213Z,36.48
2022-09-14T10:41:06.432Z,37.40
2022-09-14T10:43:35.844Z,39.71
2022-09-14T10:46:04.526Z,41.08
2022-09-14T10:48:44.402Z,42.12
2022-09-14T10:51:23.341Z,41.76
2022-09-14T10:54:03.305Z,40.73
2022-09-14T10:56:48.523Z,39.27
2022-09-14T10:59:47.548Z,38.26
2022-09-14T11:02:26.851Z,38.31
2022-09-14T11:04:53.872Z,38.29
2022-09-14T11:07:38.019Z,38.74
2022-09-14T11:10:15.205Z,38.33
2022-09-14T11:13:00.467Z,38.08
2022-09-14T11:16:02.496Z,38.73
2022-09-14T11:18:38.213Z,39.02
2022-09-14T11:21:19.853Z,39.53
2022-09-14T11:23:56.963Z,39.63
2022-09-14T11:26:39.196Z,38.38
2022-09-14T11:32:19.320Z,35.23
2022-09-14T11:34:58.966Z,34.10
2022-09-14T11:37:31.249Z,33.13
2022-09-14T11:40:09.829Z,32.54
2022-09-14T11:42:49.182Z,31.55
2022-09-14T11:45:22.549Z,30.98
2022-09-14T11:47:57.814Z,30.42
2022-09-14T11:50:27.315Z,30.09
2022-09-14T11:53:03.719Z,29.79
2022-09-14T11:55:30.727Z,29.52
2022-09-14T11:57:58.919Z,29.33
2022-09-14T12:00:25.372Z,29.31
2022-09-14T12:02:57.887Z,29.27
2022-09-14T12:05:29.832Z,29.16
2022-09-14T12:08:04.605Z,28.97
2022-09-14T12:10:31.310Z,28.78
2022-09-14T12:12:58.871Z,28.63
2022-09-14T12:15:25.358Z,28.39
2022-09-14T12:17:53.395Z,28.11
2022-09-14T12:20:29.908Z,27.83
2022-09-14T12:23:05.655Z,27.64
2022-09-14T12:25:32.418Z,27.39
2022-09-14T12:27:58.992Z,27.20
2022-09-14T12:30:39.925Z,26.92
2022-09-14T12:33:27.421Z,26.33
2022-09-14T12:35:53.867Z,26.03
2022-09-14T12:38:29.497Z,25.77
2022-09-14T12:41:19.071Z,25.71
2022-09-14T12:43:46.199Z,25.69
2022-09-14T12:46:13.362Z,25.67
2022-09-14T12:48:46.445Z,25.69
2022-09-14T12:51:19.084Z,25.70
2022-09-14T12:53:48.133Z,25.69
2022-09-14T12:56:17.977Z,25.66
2022-09-14T12:58:55.965Z,25.52
2022-09-14T13:01:27.965Z,25.48
2022-09-14T13:03:55.944Z,25.47
2022-09-14T13:06:33.082Z,25.52
2022-09-14T13:08:59.840Z,25.52
2022-09-14T13:11:30.722Z,25.54
2022-09-14T13:13:57.935Z,25.62
2022-09-14T13:16:32.461Z,25.76
2022-09-14T13:19:04.889Z,25.94
2022-09-14T13:21:31.439Z,26.01
2022-09-14T13:23:57.979Z,26.04
2022-09-14T13:26:27.775Z,26.01
2022-09-14T13:28:55.224Z,25.97
2022-09-14T13:31:30.248Z,25.98
2022-09-14T13:33:57.481Z,26.01
2022-09-14T13:36:26.188Z,25.94
2022-09-14T13:38:53.542Z,25.91
2022-09-14T13:41:22.873Z,25.82
2022-09-14T13:43:52.309Z,25.79
2022-09-14T13:46:20.540Z,25.79
2022-09-14T13:48:47.418Z,25.81
2022-09-14T13:51:14.728Z,25.74
2022-09-14T13:53:48.526Z,25.71
2022-09-14T13:56:44.594Z,25.64
2022-09-14T13:59:21.502Z,25.61
2022-09-14T14:02:00.838Z,25.34
2022-09-14T14:04:48.155Z,25.15
2022-09-14T14:07:31.321Z,24.99
2022-09-14T14:09:59.017Z,24.91
2022-09-14T14:12:25.598Z,24.84
2022-09-14T14:14:53.240Z,24.80
2022-09-14T14:17:32.867Z,24.64
2022-09-14T14:20:00.501Z,24.57
2022-09-14T14:22:33.705Z,24.59
2022-09-14T14:25:16.264Z,24.54
2022-09-14T14:27:44.449Z,24.49
2022-09-14T14:30:15.748Z,24.46
2022-09-14T14:32:42.457Z,24.38
2022-09-14T14:35:16.039Z,24.38
2022-09-14T14:37:42.517Z,24.35
2022-09-14T14:40:12.205Z,24.29
2022-09-14T14:42:39.111Z,24.19
2022-09-14T14:45:06.253Z,24.13
2022-09-14T14:47:33.417Z,24.13
2022-09-14T14:49:59.966Z,24.09
2022-09-14T14:52:26.400Z,24.09
2022-09-14T14:54:52.853Z,24.04
2022-09-14T14:57:19.649Z,24.07
2022-09-14T14:59:46.962Z,23.96
2022-09-14T15:02:13.423Z,23.89
2022-09-14T15:04:39.855Z,23.74
2022-09-14T15:07:06.439Z,23.73
2022-09-14T15:09:32.927Z,23.83
2022-09-14T15:12:00.948Z,23.70
2022-09-14T15:14:27.870Z,23.64
2022-09-14T15:16:57.846Z,23.68
2022-09-14T15:19:24.658Z,23.73
2022-09-14T15:21:51.096Z,23.75
2022-09-14T15:24:17.577Z,23.63
2022-09-14T15:26:44.062Z,23.50
2022-09-14T15:29:13.333Z,23.47
2022-09-14T15:31:40.460Z,23.49
2022-09-14T15:34:07.000Z,23.43
2022-09-14T15:36:36.561Z,23.44
2022-09-14T15:39:03.604Z,23.42
2022-09-14T15:41:30.056Z,23.41
2022-09-14T15:43:56.678Z,23.35
2022-09-14T15:46:23.170Z,23.27
2022-09-14T15:48:49.768Z,23.37
2022-09-14T15:51:17.268Z,23.42
2022-09-14T15:53:45.674Z,23.38
2022-09-14T15:56:13.350Z,23.38
2022-09-14T15:58:40.696Z,23.23
2022-09-14T16:01:09.274Z,23.19
2022-09-14T16:03:35.920Z,23.35
2022-09-14T16:06:02.454Z,23.48
2022-09-14T16:08:29.551Z,23.57
2022-09-14T16:10:59.833Z,23.59
2022-09-14T16:13:26.545Z,23.52
2022-09-14T16:16:02.262Z,23.52
2022-09-14T16:18:28.932Z,23.47
2022-09-14T16:20:55.435Z,23.43
2022-09-14T16:23:21.985Z,23.30
2022-09-14T16:25:48.735Z,23.44
2022-09-14T16:28:15.305Z,23.48
2022-09-14T16:30:41.800Z,23.45
2022-09-14T16:33:08.245Z,23.47
2022-09-14T16:35:34.779Z,23.48
2022-09-14T16:38:01.262Z,23.56
2022-09-14T16:40:27.867Z,23.57
2022-09-14T16:42:54.370Z,23.57
2022-09-14T16:45:20.938Z,23.52
2022-09-14T16:47:47.718Z,23.44
2022-09-14T16:50:14.505Z,23.43
2022-09-14T16:52:40.980Z,23.53
2022-09-14T16:55:07.746Z,23.59
2022-09-14T16:57:34.245Z,23.48
2022-09-14T17:00:00.929Z,23.48
2022-09-14T17:02:27.529Z,23.37
2022-09-14T17:04:54.101Z,23.38
2022-09-14T17:07:22.311Z,23.39
2022-09-14T17:09:48.919Z,23.29
2022-09-14T17:12:15.391Z,23.26
2022-09-14T17:14:42.245Z,23.16
2022-09-14T17:17:08.705Z,23.09
2022-09-14T17:19:35.186Z,23.03
2022-09-14T17:22:04.012Z,22.93
2022-09-14T17:24:30.675Z,22.81
2022-09-14T17:26:57.353Z,22.75
2022-09-14T17:29:24.042Z,22.66
2022-09-14T17:31:50.773Z,22.76
2022-09-14T17:34:18.147Z,22.90
2022-09-14T17:36:45.462Z,23.02
2022-09-14T17:39:12.704Z,23.08
2022-09-14T17:41:39.829Z,23.08
2022-09-14T17:44:07.211Z,23.06
2022-09-14T17:46:34.621Z,22.87
2022-09-14T17:49:04.679Z,22.86
2022-09-14T17:51:32.164Z,22.98
2022-09-14T17:54:01.019Z,23.07
2022-09-14T17:56:28.583Z,23.12
2022-09-14T17:59:05.973Z,23.17
2022-09-14T18:01:33.392Z,23.23
2022-09-14T18:04:03.868Z,23.27
2022-09-14T18:06:32.709Z,23.22
2022-09-14T18:09:00.856Z,23.16
2022-09-14T18:11:28.272Z,23.16
2022-09-14T18:13:56.121Z,23.17
2022-09-14T18:16:23.416Z,23.18
2022-09-14T18:18:50.260Z,23.20
2022-09-14T18:21:18.526Z,23.22
2022-09-14T18:23:49.551Z,23.22
2022-09-14T18:26:16.618Z,23.20
2022-09-14T18:28:44.455Z,23.17
2022-09-14T18:31:12.466Z,23.15
2022-09-14T18:33:39.389Z,23.14
2022-09-14T18:36:06.424Z,23.12
2022-09-14T18:38:33.375Z,23.12
2022-09-14T18:41:04.514Z,23.11
2022-09-14T18:43:31.668Z,23.06
2022-09-14T18:45:58.650Z,22.95
2022-09-14T18:48:25.274Z,22.84
2022-09-14T18:50:51.824Z,22.86
2022-09-14T18:53:18.359Z,22.76
2022-09-14T18:55:44.863Z,22.60
2022-09-14T18:58:11.411Z,22.55
2022-09-14T19:00:45.157Z,22.53
2022-09-14T19:03:12.289Z,22.46
2022-09-14T19:05:39.958Z,22.31
2022-09-14T19:08:07.671Z,22.21
2022-09-14T19:10:38.048Z,22.17
2022-09-14T19:13:04.950Z,22.09
2022-09-14T19:15:32.867Z,21.91
2022-09-14T19:17:59.561Z,21.75
2022-09-14T19:20:38.133Z,21.64
2022-09-14T19:23:12.796Z,21.64
2022-09-14T19:25:39.860Z,21.73
2022-09-14T19:28:07.260Z,21.78
2022-09-14T19:30:36.225Z,21.83
2022-09-14T19:33:03.040Z,21.83
2022-09-14T19:35:29.944Z,21.83
2022-09-14T19:37:57.283Z,21.83
2022-09-14T19:40:24.568Z,21.84
2022-09-14T19:42:51.727Z,21.78
2022-09-14T19:45:18.519Z,21.68
2022-09-14T19:47:45.397Z,21.66
2022-09-14T19:50:12.092Z,21.68
2022-09-14T19:52:38.618Z,21.72
2022-09-14T19:55:05.447Z,21.62
2022-09-14T19:57:32.366Z,21.50
2022-09-14T19:59:59.043Z,21.36
2022-09-14T20:02:25.698Z,21.26
2022-09-14T20:04:52.361Z,21.15
2022-09-14T20:07:19.227Z,21.05
2022-09-14T20:09:48.285Z,21.00
2022-09-14T20:12:14.911Z,20.95
2022-09-14T20:14:41.489Z,20.93
2022-09-14T20:17:08.242Z,20.96
2022-09-14T20:19:36.446Z,21.01
2022-09-14T20:22:03.297Z,21.02
2022-09-14T20:24:31.644Z,21.02
2022-09-14T20:26:59.628Z,20.99
2022-09-14T20:29:29.388Z,20.98
2022-09-14T20:31:56.203Z,20.99
2022-09-14T20:34:23.228Z,21.03
2022-09-14T20:36:50.743Z,21.02
2022-09-14T20:39:17.857Z,21.01
2022-09-14T20:41:45.176Z,21.04
2022-09-14T20:44:12.115Z,21.07
2022-09-14T20:46:43.130Z,21.12
2022-09-14T20:49:14.175Z,21.16
2022-09-14T20:51:41.658Z,21.18
2022-09-14T20:54:10.052Z,21.20
2022-09-14T20:56:37.013Z,21.21
2022-09-14T20:59:05.754Z,21.19
2022-09-14T21:01:33.007Z,21.10
2022-09-14T21:04:07.063Z,20.99
2022-09-14T21:06:35.425Z,20.96
2022-09-14T21:09:02.398Z,20.84
2022-09-14T21:11:28.948Z,20.80
2022-09-14T21:13:56.763Z,20.79
2022-09-14T21:16:24.929Z,20.80
2022-09-14T21:18:54.161Z,20.74
2022-09-14T21:21:20.945Z,20.71
2022-09-14T21:23:48.660Z,20.68
2022-09-14T21:26:15.129Z,20.67
2022-09-14T21:28:41.904Z,20.68
2022-09-14T21:31:10.248Z,20.69
2022-09-14T21:33:38.260Z,20.76
2022-09-14T21:36:09.101Z,20.75
2022-09-14T21:38:36.219Z,20.79
2022-09-14T21:41:03.076Z,20.70
2022-09-14T21:43:29.689Z,20.65
2022-09-14T21:45:59.652Z,20.71
2022-09-14T21:48:26.486Z,20.70
2022-09-14T21:51:07.350Z,20.74
2022-09-14T21:53:34.174Z,20.75
2022-09-14T21:56:04.701Z,20.66
2022-09-14T21:58:31.263Z,20.64
2022-09-14T22:00:58.830Z,20.65
2022-09-14T22:03:25.548Z,20.64
2022-09-14T22:05:56.845Z,20.63
2022-09-14T22:08:23.462Z,20.58
2022-09-14T22:10:50.080Z,20.66
2022-09-14T22:13:16.724Z,20.62
2022-09-14T22:15:43.484Z,20.70
2022-09-14T22:18:10.053Z,20.79
2022-09-14T22:20:36.587Z,20.80
2022-09-14T22:23:03.153Z,20.71
2022-09-14T22:25:30.257Z,20.77
2022-09-14T22:27:56.862Z,20.83
2022-09-14T22:30:23.331Z,20.88
2022-09-14T22:32:49.811Z,20.91
2022-09-14T22:35:16.388Z,20.95
2022-09-14T22:37:43.401Z,20.92
2022-09-14T22:40:10.478Z,20.93
2022-09-14T22:42:37.205Z,20.95
2022-09-14T22:45:03.788Z,20.94
2022-09-14T22:47:30.381Z,20.95
2022-09-14T22:49:56.996Z,20.97
2022-09-14T22:52:23.882Z,20.95
2022-09-14T22:54:50.396Z,20.90
2022-09-14T22:57:16.841Z,20.86
2022-09-14T22:59:43.290Z,20.81
2022-09-14T23:02:09.845Z,20.80
2022-09-14T23:04:36.466Z,20.74
2022-09-14T23:07:04.204Z,20.76
2022-09-14T23:09:30.731Z,20.83
2022-09-14T23:11:57.180Z,20.91
2022-09-14T23:14:24.143Z,20.96
2022-09-14T23:16:50.659Z,20.91
2022-09-14T23:19:18.014Z,20.88
2022-09-14T23:21:45.015Z,20.80
2022-09-14T23:24:11.483Z,20.68
2022-09-14T23:26:38.043Z,20.63
2022-09-14T23:29:06.765Z,20.57
2022-09-14T23:31:33.701Z,20.47
2022-09-14T23:34:01.840Z,20.43
2022-09-14T23:36:28.906Z,20.43
2022-09-14T23:38:55.415Z,20.50
2022-09-14T23:41:22.740Z,20.53
2022-09-14T23:43:49.498Z,20.53
2022-09-14T23:46:16.484Z,20.51
2022-09-14T23:48:43.479Z,20.52
2022-09-14T23:51:10.732Z,20.48
2022-09-14T23:53:37.924Z,20.55
2022-09-14T23:56:04.734Z,20.60
2022-09-14T23:58:31.366Z,20.64
